sensor_id;sensor_type;location;lat;lon;timestamp;P1;durP1;ratioP1;P2;durP2;ratioP2
31966;SDS011;18496;52.042;6.812;2023-05-23T00:00:25;14.70;;;6.55;;
31966;SDS011;18496;52.042;6.812;2023-05-23T00:02:31;11.80;;;7.25;;
31966;SDS011;18496;52.042;6.812;2023-05-23T00:04:41;8.63;;;6.40;;
31966;SDS011;18496;52.042;6.812;2023-05-23T00:06:46;9.70;;;5.88;;
31966;SDS011;18496;52.042;6.812;2023-05-23T00:09:00;11.82;;;7.00;;
31966;SDS011;18496;52.042;6.812;2023-05-23T00:11:06;12.57;;;6.63;;
31966;SDS011;18496;52.042;6.812;2023-05-23T00:13:13;10.18;;;6.57;;
31966;SDS011;18496;52.042;6.812;2023-05-23T00:15:20;8.73;;;6.13;;
31966;SDS011;18496;52.042;6.812;2023-05-23T00:17:26;10.60;;;6.40;;
31966;SDS011;18496;52.042;6.812;2023-05-23T00:19:33;11.70;;;7.18;;
31966;SDS011;18496;52.042;6.812;2023-05-23T00:21:44;11.00;;;6.93;;
31966;SDS011;18496;52.042;6.812;2023-05-23T00:23:52;11.60;;;7.18;;
31966;SDS011;18496;52.042;6.812;2023-05-23T00:26:04;12.98;;;7.38;;
31966;SDS011;18496;52.042;6.812;2023-05-23T00:28:25;14.90;;;7.40;;
31966;SDS011;18496;52.042;6.812;2023-05-23T00:30:35;13.30;;;7.53;;
31966;SDS011;18496;52.042;6.812;2023-05-23T00:32:41;14.35;;;7.88;;
31966;SDS011;18496;52.042;6.812;2023-05-23T00:34:48;15.18;;;8.23;;
31966;SDS011;18496;52.042;6.812;2023-05-23T00:37:00;16.33;;;8.57;;
31966;SDS011;18496;52.042;6.812;2023-05-23T00:39:11;16.85;;;8.77;;
31966;SDS011;18496;52.042;6.812;2023-05-23T00:41:28;17.05;;;8.70;;
31966;SDS011;18496;52.042;6.812;2023-05-23T00:43:38;16.05;;;9.05;;
31966;SDS011;18496;52.042;6.812;2023-05-23T00:45:48;13.85;;;8.45;;
31966;SDS011;18496;52.042;6.812;2023-05-23T00:47:52;11.70;;;7.93;;
31966;SDS011;18496;52.042;6.812;2023-05-23T00:50:05;16.88;;;8.85;;
31966;SDS011;18496;52.042;6.812;2023-05-23T00:52:56;15.52;;;9.43;;
31966;SDS011;18496;52.042;6.812;2023-05-23T00:55:19;17.30;;;9.68;;
31966;SDS011;18496;52.042;6.812;2023-05-23T00:57:37;16.48;;;9.77;;
31966;SDS011;18496;52.042;6.812;2023-05-23T00:59:48;15.75;;;9.25;;
31966;SDS011;18496;52.042;6.812;2023-05-23T01:02:02;13.20;;;9.13;;
31966;SDS011;18496;52.042;6.812;2023-05-23T01:04:21;18.20;;;10.05;;
31966;SDS011;18496;52.042;6.812;2023-05-23T01:06:31;24.17;;;10.82;;
31966;SDS011;18496;52.042;6.812;2023-05-23T01:08:46;17.25;;;11.43;;
31966;SDS011;18496;52.042;6.812;2023-05-23T01:10:56;18.98;;;11.20;;
31966;SDS011;18496;52.042;6.812;2023-05-23T01:13:46;18.27;;;10.27;;
31966;SDS011;18496;52.042;6.812;2023-05-23T01:16:20;21.05;;;11.05;;
31966;SDS011;18496;52.042;6.812;2023-05-23T01:21:41;24.33;;;12.13;;
31966;SDS011;18496;52.042;6.812;2023-05-23T01:28:36;22.25;;;12.02;;
31966;SDS011;18496;52.042;6.812;2023-05-23T01:30:47;21.25;;;11.55;;
31966;SDS011;18496;52.042;6.812;2023-05-23T01:32:53;18.55;;;10.57;;
31966;SDS011;18496;52.042;6.812;2023-05-23T01:34:58;24.38;;;11.52;;
31966;SDS011;18496;52.042;6.812;2023-05-23T01:37:12;21.65;;;10.80;;
31966;SDS011;18496;52.042;6.812;2023-05-23T01:39:36;17.98;;;9.75;;
31966;SDS011;18496;52.042;6.812;2023-05-23T01:41:43;20.13;;;10.57;;
31966;SDS011;18496;52.042;6.812;2023-05-23T01:44:05;18.17;;;8.73;;
31966;SDS011;18496;52.042;6.812;2023-05-23T01:46:16;22.38;;;10.80;;
31966;SDS011;18496;52.042;6.812;2023-05-23T01:48:46;16.17;;;9.50;;
31966;SDS011;18496;52.042;6.812;2023-05-23T01:51:17;22.50;;;10.48;;
31966;SDS011;18496;52.042;6.812;2023-05-23T01:53:26;24.42;;;10.73;;
31966;SDS011;18496;52.042;6.812;2023-05-23T01:55:57;22.65;;;9.80;;
31966;SDS011;18496;52.042;6.812;2023-05-23T01:58:17;22.13;;;9.88;;
31966;SDS011;18496;52.042;6.812;2023-05-23T02:00:42;29.33;;;11.73;;
31966;SDS011;18496;52.042;6.812;2023-05-23T02:03:04;27.85;;;9.80;;
31966;SDS011;18496;52.042;6.812;2023-05-23T02:05:56;19.27;;;9.07;;
31966;SDS011;18496;52.042;6.812;2023-05-23T02:08:55;23.55;;;9.55;;
31966;SDS011;18496;52.042;6.812;2023-05-23T02:17:37;15.73;;;8.32;;
31966;SDS011;18496;52.042;6.812;2023-05-23T02:20:22;19.83;;;9.30;;
31966;SDS011;18496;52.042;6.812;2023-05-23T02:26:01;15.23;;;8.53;;
31966;SDS011;18496;52.042;6.812;2023-05-23T02:28:24;19.45;;;8.63;;
31966;SDS011;18496;52.042;6.812;2023-05-23T02:31:04;19.80;;;8.38;;
31966;SDS011;18496;52.042;6.812;2023-05-23T02:34:04;16.40;;;8.98;;
31966;SDS011;18496;52.042;6.812;2023-05-23T02:36:29;18.60;;;9.90;;
31966;SDS011;18496;52.042;6.812;2023-05-23T02:48:44;14.82;;;7.60;;
31966;SDS011;18496;52.042;6.812;2023-05-23T02:51:30;16.15;;;8.02;;
31966;SDS011;18496;52.042;6.812;2023-05-23T02:53:59;15.70;;;7.17;;
31966;SDS011;18496;52.042;6.812;2023-05-23T02:56:36;17.90;;;7.70;;
31966;SDS011;18496;52.042;6.812;2023-05-23T02:58:58;20.25;;;8.52;;
31966;SDS011;18496;52.042;6.812;2023-05-23T03:01:03;15.05;;;6.90;;
31966;SDS011;18496;52.042;6.812;2023-05-23T03:03:41;12.90;;;7.20;;
31966;SDS011;18496;52.042;6.812;2023-05-23T03:06:52;16.13;;;8.02;;
31966;SDS011;18496;52.042;6.812;2023-05-23T03:10:07;16.10;;;8.57;;
31966;SDS011;18496;52.042;6.812;2023-05-23T03:12:32;21.65;;;9.50;;
31966;SDS011;18496;52.042;6.812;2023-05-23T03:15:22;29.15;;;10.43;;
31966;SDS011;18496;52.042;6.812;2023-05-23T03:18:17;21.40;;;9.90;;
31966;SDS011;18496;52.042;6.812;2023-05-23T03:20:47;19.73;;;9.43;;
31966;SDS011;18496;52.042;6.812;2023-05-23T03:23:30;23.90;;;10.65;;
31966;SDS011;18496;52.042;6.812;2023-05-23T03:26:18;23.85;;;10.30;;
31966;SDS011;18496;52.042;6.812;2023-05-23T03:29:05;23.92;;;10.88;;
31966;SDS011;18496;52.042;6.812;2023-05-23T03:31:45;22.17;;;11.25;;
31966;SDS011;18496;52.042;6.812;2023-05-23T03:37:37;25.45;;;11.77;;
31966;SDS011;18496;52.042;6.812;2023-05-23T03:44:14;24.65;;;10.75;;
31966;SDS011;18496;52.042;6.812;2023-05-23T03:49:37;20.75;;;10.43;;
31966;SDS011;18496;52.042;6.812;2023-05-23T03:58:38;22.33;;;9.77;;
31966;SDS011;18496;52.042;6.812;2023-05-23T04:04:09;26.45;;;11.65;;
31966;SDS011;18496;52.042;6.812;2023-05-23T04:06:35;27.98;;;10.85;;
31966;SDS011;18496;52.042;6.812;2023-05-23T04:09:04;26.80;;;10.68;;
31966;SDS011;18496;52.042;6.812;2023-05-23T04:11:24;22.48;;;10.88;;
31966;SDS011;18496;52.042;6.812;2023-05-23T04:13:47;25.45;;;11.27;;
31966;SDS011;18496;52.042;6.812;2023-05-23T04:18:40;20.90;;;10.60;;
31966;SDS011;18496;52.042;6.812;2023-05-23T04:21:27;25.48;;;10.23;;
31966;SDS011;18496;52.042;6.812;2023-05-23T04:23:57;24.05;;;10.25;;
31966;SDS011;18496;52.042;6.812;2023-05-23T04:26:13;22.00;;;9.97;;
31966;SDS011;18496;52.042;6.812;2023-05-23T04:28:28;17.63;;;9.00;;
31966;SDS011;18496;52.042;6.812;2023-05-23T04:30:44;16.45;;;9.95;;
31966;SDS011;18496;52.042;6.812;2023-05-23T04:32:56;27.75;;;11.48;;
31966;SDS011;18496;52.042;6.812;2023-05-23T04:35:05;23.00;;;10.30;;
31966;SDS011;18496;52.042;6.812;2023-05-23T04:37:13;21.55;;;8.93;;
31966;SDS011;18496;52.042;6.812;2023-05-23T04:39:16;25.05;;;10.05;;
31966;SDS011;18496;52.042;6.812;2023-05-23T04:41:43;18.35;;;9.75;;
31966;SDS011;18496;52.042;6.812;2023-05-23T04:44:06;14.27;;;8.75;;
31966;SDS011;18496;52.042;6.812;2023-05-23T04:46:19;16.48;;;8.38;;
31966;SDS011;18496;52.042;6.812;2023-05-23T04:48:42;25.77;;;9.80;;
31966;SDS011;18496;52.042;6.812;2023-05-23T04:50:46;19.88;;;9.48;;
31966;SDS011;18496;52.042;6.812;2023-05-23T04:52:51;23.25;;;9.30;;
31966;SDS011;18496;52.042;6.812;2023-05-23T04:54:54;21.58;;;9.52;;
31966;SDS011;18496;52.042;6.812;2023-05-23T04:56:58;22.17;;;10.20;;
31966;SDS011;18496;52.042;6.812;2023-05-23T04:59:03;28.63;;;12.70;;
31966;SDS011;18496;52.042;6.812;2023-05-23T05:01:07;27.58;;;11.52;;
31966;SDS011;18496;52.042;6.812;2023-05-23T05:03:12;29.17;;;13.20;;
31966;SDS011;18496;52.042;6.812;2023-05-23T05:05:19;38.10;;;14.70;;
31966;SDS011;18496;52.042;6.812;2023-05-23T05:07:24;20.77;;;10.98;;
31966;SDS011;18496;52.042;6.812;2023-05-23T05:09:28;23.80;;;10.13;;
31966;SDS011;18496;52.042;6.812;2023-05-23T05:11:33;20.75;;;9.75;;
31966;SDS011;18496;52.042;6.812;2023-05-23T05:13:37;24.40;;;10.23;;
31966;SDS011;18496;52.042;6.812;2023-05-23T05:15:41;20.13;;;9.60;;
31966;SDS011;18496;52.042;6.812;2023-05-23T05:17:45;20.95;;;9.45;;
31966;SDS011;18496;52.042;6.812;2023-05-23T05:19:50;22.40;;;8.90;;
31966;SDS011;18496;52.042;6.812;2023-05-23T05:21:54;20.08;;;8.52;;
31966;SDS011;18496;52.042;6.812;2023-05-23T05:23:59;23.02;;;10.45;;
31966;SDS011;18496;52.042;6.812;2023-05-23T05:26:03;21.90;;;9.10;;
31966;SDS011;18496;52.042;6.812;2023-05-23T05:28:07;23.77;;;8.75;;
31966;SDS011;18496;52.042;6.812;2023-05-23T05:30:19;16.30;;;7.93;;
31966;SDS011;18496;52.042;6.812;2023-05-23T05:32:29;15.50;;;7.72;;
31966;SDS011;18496;52.042;6.812;2023-05-23T05:34:38;14.27;;;7.53;;
31966;SDS011;18496;52.042;6.812;2023-05-23T05:36:42;21.05;;;8.00;;
31966;SDS011;18496;52.042;6.812;2023-05-23T05:38:50;14.10;;;6.97;;
31966;SDS011;18496;52.042;6.812;2023-05-23T05:40:57;16.85;;;7.70;;
31966;SDS011;18496;52.042;6.812;2023-05-23T05:43:02;20.75;;;6.80;;
31966;SDS011;18496;52.042;6.812;2023-05-23T05:45:06;15.27;;;6.65;;
31966;SDS011;18496;52.042;6.812;2023-05-23T05:47:11;13.82;;;6.57;;
31966;SDS011;18496;52.042;6.812;2023-05-23T05:49:15;12.75;;;6.20;;
31966;SDS011;18496;52.042;6.812;2023-05-23T05:51:21;16.60;;;6.15;;
31966;SDS011;18496;52.042;6.812;2023-05-23T05:53:25;10.30;;;5.85;;
31966;SDS011;18496;52.042;6.812;2023-05-23T05:55:29;17.02;;;8.07;;
31966;SDS011;18496;52.042;6.812;2023-05-23T05:57:34;23.13;;;7.57;;
31966;SDS011;18496;52.042;6.812;2023-05-23T05:59:41;19.17;;;7.75;;
31966;SDS011;18496;52.042;6.812;2023-05-23T06:01:44;15.35;;;6.95;;
31966;SDS011;18496;52.042;6.812;2023-05-23T06:03:49;19.15;;;7.60;;
31966;SDS011;18496;52.042;6.812;2023-05-23T06:05:52;19.98;;;7.05;;
31966;SDS011;18496;52.042;6.812;2023-05-23T06:07:57;24.70;;;7.55;;
31966;SDS011;18496;52.042;6.812;2023-05-23T06:10:04;22.20;;;7.43;;
31966;SDS011;18496;52.042;6.812;2023-05-23T06:12:08;17.27;;;7.50;;
31966;SDS011;18496;52.042;6.812;2023-05-23T06:14:11;20.42;;;7.40;;
31966;SDS011;18496;52.042;6.812;2023-05-23T06:16:19;17.30;;;7.72;;
31966;SDS011;18496;52.042;6.812;2023-05-23T06:18:22;18.95;;;7.38;;
31966;SDS011;18496;52.042;6.812;2023-05-23T06:20:27;16.25;;;7.07;;
31966;SDS011;18496;52.042;6.812;2023-05-23T06:22:32;16.63;;;7.13;;
31966;SDS011;18496;52.042;6.812;2023-05-23T06:24:36;15.02;;;7.03;;
31966;SDS011;18496;52.042;6.812;2023-05-23T06:26:39;17.90;;;6.57;;
31966;SDS011;18496;52.042;6.812;2023-05-23T06:28:44;20.35;;;7.60;;
31966;SDS011;18496;52.042;6.812;2023-05-23T06:30:48;23.98;;;6.68;;
31966;SDS011;18496;52.042;6.812;2023-05-23T06:32:52;13.43;;;5.68;;
31966;SDS011;18496;52.042;6.812;2023-05-23T06:34:56;14.63;;;6.47;;
31966;SDS011;18496;52.042;6.812;2023-05-23T06:36:59;13.73;;;5.78;;
31966;SDS011;18496;52.042;6.812;2023-05-23T06:39:03;9.25;;;5.22;;
31966;SDS011;18496;52.042;6.812;2023-05-23T06:41:07;14.43;;;5.60;;
31966;SDS011;18496;52.042;6.812;2023-05-23T06:43:12;15.95;;;5.85;;
31966;SDS011;18496;52.042;6.812;2023-05-23T06:45:27;16.55;;;6.13;;
31966;SDS011;18496;52.042;6.812;2023-05-23T06:47:31;16.35;;;5.88;;
31966;SDS011;18496;52.042;6.812;2023-05-23T06:49:34;24.15;;;7.25;;
31966;SDS011;18496;52.042;6.812;2023-05-23T06:51:38;22.73;;;6.40;;
31966;SDS011;18496;52.042;6.812;2023-05-23T06:53:42;10.45;;;4.78;;
31966;SDS011;18496;52.042;6.812;2023-05-23T06:55:45;19.73;;;6.85;;
31966;SDS011;18496;52.042;6.812;2023-05-23T06:57:52;16.42;;;7.05;;
31966;SDS011;18496;52.042;6.812;2023-05-23T06:59:57;19.98;;;6.97;;
31966;SDS011;18496;52.042;6.812;2023-05-23T07:02:01;19.73;;;5.93;;
31966;SDS011;18496;52.042;6.812;2023-05-23T07:04:05;13.60;;;5.88;;
31966;SDS011;18496;52.042;6.812;2023-05-23T07:06:10;21.63;;;6.63;;
31966;SDS011;18496;52.042;6.812;2023-05-23T07:08:16;15.35;;;6.30;;
31966;SDS011;18496;52.042;6.812;2023-05-23T07:10:31;17.63;;;7.53;;
31966;SDS011;18496;52.042;6.812;2023-05-23T07:12:44;15.52;;;6.22;;
31966;SDS011;18496;52.042;6.812;2023-05-23T07:14:49;19.27;;;7.13;;
31966;SDS011;18496;52.042;6.812;2023-05-23T07:16:54;11.85;;;6.72;;
31966;SDS011;18496;52.042;6.812;2023-05-23T07:18:57;18.17;;;5.90;;
31966;SDS011;18496;52.042;6.812;2023-05-23T07:21:03;25.58;;;7.10;;
31966;SDS011;18496;52.042;6.812;2023-05-23T07:23:07;17.88;;;6.57;;
31966;SDS011;18496;52.042;6.812;2023-05-23T07:25:11;15.40;;;6.05;;
31966;SDS011;18496;52.042;6.812;2023-05-23T07:27:14;17.27;;;6.60;;
31966;SDS011;18496;52.042;6.812;2023-05-23T07:29:19;16.50;;;6.43;;
31966;SDS011;18496;52.042;6.812;2023-05-23T07:31:25;16.70;;;5.70;;
31966;SDS011;18496;52.042;6.812;2023-05-23T07:33:31;24.25;;;7.05;;
31966;SDS011;18496;52.042;6.812;2023-05-23T07:35:40;21.88;;;7.07;;
31966;SDS011;18496;52.042;6.812;2023-05-23T07:37:44;22.05;;;6.40;;
31966;SDS011;18496;52.042;6.812;2023-05-23T07:39:48;18.20;;;6.32;;
31966;SDS011;18496;52.042;6.812;2023-05-23T07:41:52;19.85;;;5.97;;
31966;SDS011;18496;52.042;6.812;2023-05-23T07:43:56;17.77;;;6.18;;
31966;SDS011;18496;52.042;6.812;2023-05-23T07:45:59;15.50;;;6.68;;
31966;SDS011;18496;52.042;6.812;2023-05-23T07:48:03;18.33;;;5.85;;
31966;SDS011;18496;52.042;6.812;2023-05-23T07:50:08;14.93;;;5.63;;
31966;SDS011;18496;52.042;6.812;2023-05-23T07:52:12;16.83;;;5.25;;
31966;SDS011;18496;52.042;6.812;2023-05-23T07:54:15;17.80;;;6.07;;
31966;SDS011;18496;52.042;6.812;2023-05-23T07:56:19;13.23;;;5.45;;
31966;SDS011;18496;52.042;6.812;2023-05-23T07:58:24;16.67;;;5.80;;
31966;SDS011;18496;52.042;6.812;2023-05-23T08:00:27;18.55;;;6.38;;
31966;SDS011;18496;52.042;6.812;2023-05-23T08:04:42;12.38;;;4.95;;
31966;SDS011;18496;52.042;6.812;2023-05-23T08:06:47;15.02;;;5.90;;
31966;SDS011;18496;52.042;6.812;2023-05-23T08:08:51;13.73;;;5.20;;
31966;SDS011;18496;52.042;6.812;2023-05-23T08:10:55;11.68;;;4.93;;
31966;SDS011;18496;52.042;6.812;2023-05-23T08:13:04;21.05;;;7.03;;
31966;SDS011;18496;52.042;6.812;2023-05-23T08:15:13;16.48;;;6.68;;
31966;SDS011;18496;52.042;6.812;2023-05-23T08:17:24;15.65;;;6.03;;
31966;SDS011;18496;52.042;6.812;2023-05-23T08:19:29;21.98;;;6.20;;
31966;SDS011;18496;52.042;6.812;2023-05-23T08:21:34;17.70;;;6.88;;
31966;SDS011;18496;52.042;6.812;2023-05-23T08:23:38;12.50;;;5.35;;
31966;SDS011;18496;52.042;6.812;2023-05-23T08:25:42;16.38;;;5.85;;
31966;SDS011;18496;52.042;6.812;2023-05-23T08:27:46;16.90;;;5.03;;
31966;SDS011;18496;52.042;6.812;2023-05-23T08:30:07;15.50;;;4.53;;
31966;SDS011;18496;52.042;6.812;2023-05-23T08:32:12;18.00;;;6.07;;
31966;SDS011;18496;52.042;6.812;2023-05-23T08:34:16;18.20;;;6.38;;
31966;SDS011;18496;52.042;6.812;2023-05-23T08:36:19;18.92;;;5.55;;
31966;SDS011;18496;52.042;6.812;2023-05-23T08:38:24;18.40;;;5.43;;
31966;SDS011;18496;52.042;6.812;2023-05-23T08:40:40;17.08;;;5.53;;
31966;SDS011;18496;52.042;6.812;2023-05-23T08:42:51;18.23;;;4.95;;
31966;SDS011;18496;52.042;6.812;2023-05-23T08:44:55;20.48;;;5.88;;
31966;SDS011;18496;52.042;6.812;2023-05-23T08:47:00;12.35;;;4.90;;
31966;SDS011;18496;52.042;6.812;2023-05-23T08:49:28;19.88;;;5.20;;
31966;SDS011;18496;52.042;6.812;2023-05-23T08:51:32;12.82;;;4.45;;
31966;SDS011;18496;52.042;6.812;2023-05-23T08:53:44;12.65;;;4.63;;
31966;SDS011;18496;52.042;6.812;2023-05-23T08:55:50;14.30;;;4.80;;
31966;SDS011;18496;52.042;6.812;2023-05-23T08:57:57;12.05;;;4.53;;
31966;SDS011;18496;52.042;6.812;2023-05-23T09:00:21;11.90;;;4.97;;
31966;SDS011;18496;52.042;6.812;2023-05-23T09:02:27;11.43;;;4.63;;
31966;SDS011;18496;52.042;6.812;2023-05-23T09:04:40;10.30;;;4.15;;
31966;SDS011;18496;52.042;6.812;2023-05-23T09:06:50;14.90;;;3.72;;
31966;SDS011;18496;52.042;6.812;2023-05-23T09:08:55;13.50;;;4.72;;
31966;SDS011;18496;52.042;6.812;2023-05-23T09:11:00;13.00;;;4.32;;
31966;SDS011;18496;52.042;6.812;2023-05-23T09:13:11;15.10;;;4.88;;
31966;SDS011;18496;52.042;6.812;2023-05-23T09:15:16;10.88;;;3.97;;
31966;SDS011;18496;52.042;6.812;2023-05-23T09:17:21;11.68;;;4.90;;
31966;SDS011;18496;52.042;6.812;2023-05-23T09:19:27;12.02;;;4.35;;
31966;SDS011;18496;52.042;6.812;2023-05-23T09:21:42;16.40;;;4.68;;
31966;SDS011;18496;52.042;6.812;2023-05-23T09:23:55;14.68;;;5.10;;
31966;SDS011;18496;52.042;6.812;2023-05-23T09:26:02;15.63;;;3.85;;
31966;SDS011;18496;52.042;6.812;2023-05-23T09:28:11;14.43;;;4.30;;
31966;SDS011;18496;52.042;6.812;2023-05-23T09:30:18;11.77;;;4.10;;
31966;SDS011;18496;52.042;6.812;2023-05-23T09:32:22;17.85;;;4.40;;
31966;SDS011;18496;52.042;6.812;2023-05-23T09:34:27;13.90;;;4.63;;
31966;SDS011;18496;52.042;6.812;2023-05-23T09:36:31;9.18;;;4.05;;
31966;SDS011;18496;52.042;6.812;2023-05-23T09:38:40;14.73;;;4.57;;
31966;SDS011;18496;52.042;6.812;2023-05-23T09:40:48;13.80;;;3.97;;
31966;SDS011;18496;52.042;6.812;2023-05-23T09:42:54;17.58;;;4.35;;
31966;SDS011;18496;52.042;6.812;2023-05-23T09:45:02;14.52;;;4.18;;
31966;SDS011;18496;52.042;6.812;2023-05-23T09:47:06;15.95;;;4.32;;
31966;SDS011;18496;52.042;6.812;2023-05-23T09:49:16;13.10;;;4.35;;
31966;SDS011;18496;52.042;6.812;2023-05-23T09:51:22;13.00;;;4.25;;
31966;SDS011;18496;52.042;6.812;2023-05-23T09:53:27;12.45;;;3.90;;
31966;SDS011;18496;52.042;6.812;2023-05-23T09:55:31;13.40;;;3.80;;
31966;SDS011;18496;52.042;6.812;2023-05-23T09:57:34;12.98;;;3.80;;
31966;SDS011;18496;52.042;6.812;2023-05-23T09:59:44;18.10;;;3.97;;
31966;SDS011;18496;52.042;6.812;2023-05-23T10:01:58;17.42;;;4.38;;
31966;SDS011;18496;52.042;6.812;2023-05-23T10:04:04;21.17;;;5.10;;
31966;SDS011;18496;52.042;6.812;2023-05-23T10:13:03;18.58;;;4.10;;
31966;SDS011;18496;52.042;6.812;2023-05-23T10:15:08;13.48;;;3.45;;
31966;SDS011;18496;52.042;6.812;2023-05-23T10:17:17;10.68;;;3.38;;
31966;SDS011;18496;52.042;6.812;2023-05-23T10:19:50;17.98;;;5.00;;
31966;SDS011;18496;52.042;6.812;2023-05-23T10:24:06;17.48;;;4.35;;
31966;SDS011;18496;52.042;6.812;2023-05-23T10:26:11;14.15;;;4.22;;
31966;SDS011;18496;52.042;6.812;2023-05-23T10:28:15;15.30;;;4.13;;
31966;SDS011;18496;52.042;6.812;2023-05-23T10:30:19;17.50;;;4.35;;
31966;SDS011;18496;52.042;6.812;2023-05-23T10:32:23;15.57;;;4.50;;
31966;SDS011;18496;52.042;6.812;2023-05-23T10:37:06;15.95;;;4.05;;
31966;SDS011;18496;52.042;6.812;2023-05-23T10:39:15;13.70;;;3.75;;
31966;SDS011;18496;52.042;6.812;2023-05-23T10:41:33;17.83;;;4.03;;
31966;SDS011;18496;52.042;6.812;2023-05-23T10:45:52;11.20;;;4.05;;
31966;SDS011;18496;52.042;6.812;2023-05-23T10:47:58;10.18;;;4.22;;
31966;SDS011;18496;52.042;6.812;2023-05-23T10:50:02;14.05;;;3.53;;
31966;SDS011;18496;52.042;6.812;2023-05-23T10:52:07;18.35;;;4.03;;
31966;SDS011;18496;52.042;6.812;2023-05-23T10:54:11;18.25;;;4.20;;
31966;SDS011;18496;52.042;6.812;2023-05-23T10:56:22;11.88;;;3.83;;
31966;SDS011;18496;52.042;6.812;2023-05-23T10:58:28;13.45;;;3.80;;
31966;SDS011;18496;52.042;6.812;2023-05-23T11:00:32;18.20;;;4.15;;
31966;SDS011;18496;52.042;6.812;2023-05-23T11:02:37;12.43;;;3.88;;
31966;SDS011;18496;52.042;6.812;2023-05-23T11:04:41;13.80;;;4.10;;
31966;SDS011;18496;52.042;6.812;2023-05-23T11:06:45;15.45;;;3.97;;
31966;SDS011;18496;52.042;6.812;2023-05-23T11:08:50;13.38;;;3.72;;
31966;SDS011;18496;52.042;6.812;2023-05-23T11:11:21;14.63;;;4.00;;
31966;SDS011;18496;52.042;6.812;2023-05-23T11:13:25;14.77;;;4.05;;
31966;SDS011;18496;52.042;6.812;2023-05-23T11:15:49;9.85;;;2.75;;
31966;SDS011;18496;52.042;6.812;2023-05-23T11:17:53;13.27;;;3.55;;
31966;SDS011;18496;52.042;6.812;2023-05-23T11:20:05;11.95;;;3.83;;
31966;SDS011;18496;52.042;6.812;2023-05-23T11:22:11;10.85;;;3.90;;
31966;SDS011;18496;52.042;6.812;2023-05-23T11:24:15;12.90;;;4.20;;
31966;SDS011;18496;52.042;6.812;2023-05-23T11:26:28;16.70;;;4.05;;
31966;SDS011;18496;52.042;6.812;2023-05-23T11:30:56;15.20;;;4.18;;
31966;SDS011;18496;52.042;6.812;2023-05-23T11:33:00;16.48;;;3.58;;
31966;SDS011;18496;52.042;6.812;2023-05-23T11:35:15;17.15;;;4.75;;
31966;SDS011;18496;52.042;6.812;2023-05-23T11:37:19;18.20;;;4.95;;
31966;SDS011;18496;52.042;6.812;2023-05-23T11:39:25;13.57;;;3.83;;
31966;SDS011;18496;52.042;6.812;2023-05-23T11:41:29;20.48;;;3.88;;
31966;SDS011;18496;52.042;6.812;2023-05-23T11:43:33;17.65;;;3.85;;
31966;SDS011;18496;52.042;6.812;2023-05-23T11:45:37;15.68;;;3.67;;
31966;SDS011;18496;52.042;6.812;2023-05-23T11:47:41;18.92;;;4.32;;
31966;SDS011;18496;52.042;6.812;2023-05-23T11:49:45;16.58;;;4.50;;
31966;SDS011;18496;52.042;6.812;2023-05-23T11:51:49;15.85;;;3.65;;
31966;SDS011;18496;52.042;6.812;2023-05-23T11:53:53;17.23;;;3.65;;
31966;SDS011;18496;52.042;6.812;2023-05-23T11:56:02;9.65;;;3.78;;
31966;SDS011;18496;52.042;6.812;2023-05-23T11:58:06;11.43;;;3.60;;
31966;SDS011;18496;52.042;6.812;2023-05-23T12:00:11;17.92;;;3.55;;
31966;SDS011;18496;52.042;6.812;2023-05-23T12:02:16;13.20;;;4.20;;
31966;SDS011;18496;52.042;6.812;2023-05-23T12:04:19;16.88;;;3.67;;
31966;SDS011;18496;52.042;6.812;2023-05-23T12:06:23;12.80;;;3.88;;
31966;SDS011;18496;52.042;6.812;2023-05-23T12:08:27;15.23;;;3.83;;
31966;SDS011;18496;52.042;6.812;2023-05-23T12:10:31;12.70;;;3.28;;
31966;SDS011;18496;52.042;6.812;2023-05-23T12:12:35;7.60;;;3.50;;
31966;SDS011;18496;52.042;6.812;2023-05-23T12:14:40;11.80;;;3.55;;
31966;SDS011;18496;52.042;6.812;2023-05-23T12:16:46;15.68;;;3.83;;
31966;SDS011;18496;52.042;6.812;2023-05-23T12:18:50;14.60;;;4.00;;
31966;SDS011;18496;52.042;6.812;2023-05-23T12:20:58;11.98;;;3.72;;
31966;SDS011;18496;52.042;6.812;2023-05-23T12:23:03;11.43;;;3.35;;
31966;SDS011;18496;52.042;6.812;2023-05-23T12:25:08;11.15;;;4.22;;
31966;SDS011;18496;52.042;6.812;2023-05-23T12:27:15;9.48;;;2.97;;
31966;SDS011;18496;52.042;6.812;2023-05-23T12:29:30;11.30;;;3.33;;
31966;SDS011;18496;52.042;6.812;2023-05-23T12:31:35;15.48;;;3.85;;
31966;SDS011;18496;52.042;6.812;2023-05-23T12:33:39;8.70;;;2.90;;
31966;SDS011;18496;52.042;6.812;2023-05-23T12:35:47;16.58;;;3.95;;
31966;SDS011;18496;52.042;6.812;2023-05-23T12:37:50;10.45;;;3.55;;
31966;SDS011;18496;52.042;6.812;2023-05-23T12:39:56;16.77;;;3.90;;
31966;SDS011;18496;52.042;6.812;2023-05-23T12:42:07;13.38;;;3.55;;
31966;SDS011;18496;52.042;6.812;2023-05-23T12:44:14;13.95;;;3.78;;
31966;SDS011;18496;52.042;6.812;2023-05-23T12:46:19;11.68;;;2.83;;
31966;SDS011;18496;52.042;6.812;2023-05-23T12:48:24;9.82;;;3.22;;
31966;SDS011;18496;52.042;6.812;2023-05-23T12:50:28;12.52;;;3.33;;
31966;SDS011;18496;52.042;6.812;2023-05-23T12:52:32;11.75;;;4.05;;
31966;SDS011;18496;52.042;6.812;2023-05-23T12:54:38;13.43;;;3.47;;
31966;SDS011;18496;52.042;6.812;2023-05-23T12:56:42;9.57;;;2.97;;
31966;SDS011;18496;52.042;6.812;2023-05-23T12:58:45;9.85;;;3.28;;
31966;SDS011;18496;52.042;6.812;2023-05-23T13:00:49;11.18;;;3.80;;
31966;SDS011;18496;52.042;6.812;2023-05-23T13:02:53;13.40;;;3.45;;
31966;SDS011;18496;52.042;6.812;2023-05-23T13:04:57;9.35;;;3.20;;
31966;SDS011;18496;52.042;6.812;2023-05-23T13:07:00;11.18;;;3.00;;
31966;SDS011;18496;52.042;6.812;2023-05-23T13:09:04;11.82;;;3.40;;
31966;SDS011;18496;52.042;6.812;2023-05-23T13:11:08;12.43;;;3.15;;
31966;SDS011;18496;52.042;6.812;2023-05-23T13:13:12;13.88;;;3.05;;
31966;SDS011;18496;52.042;6.812;2023-05-23T13:15:16;9.02;;;2.88;;
31966;SDS011;18496;52.042;6.812;2023-05-23T13:17:19;12.23;;;2.78;;
31966;SDS011;18496;52.042;6.812;2023-05-23T13:19:23;12.57;;;2.83;;
31966;SDS011;18496;52.042;6.812;2023-05-23T13:21:30;9.18;;;3.40;;
31966;SDS011;18496;52.042;6.812;2023-05-23T13:23:34;12.40;;;2.53;;
31966;SDS011;18496;52.042;6.812;2023-05-23T13:25:40;9.38;;;2.60;;
31966;SDS011;18496;52.042;6.812;2023-05-23T13:27:44;12.90;;;2.75;;
31966;SDS011;18496;52.042;6.812;2023-05-23T13:29:48;15.50;;;3.60;;
31966;SDS011;18496;52.042;6.812;2023-05-23T13:31:51;12.30;;;2.88;;
31966;SDS011;18496;52.042;6.812;2023-05-23T13:33:55;12.20;;;2.50;;
31966;SDS011;18496;52.042;6.812;2023-05-23T13:35:59;9.73;;;2.88;;
31966;SDS011;18496;52.042;6.812;2023-05-23T13:38:03;11.98;;;3.35;;
31966;SDS011;18496;52.042;6.812;2023-05-23T13:40:06;7.05;;;3.03;;
31966;SDS011;18496;52.042;6.812;2023-05-23T13:42:14;12.73;;;3.33;;
31966;SDS011;18496;52.042;6.812;2023-05-23T13:44:17;11.95;;;3.10;;
31966;SDS011;18496;52.042;6.812;2023-05-23T13:46:21;11.52;;;2.90;;
31966;SDS011;18496;52.042;6.812;2023-05-23T13:48:25;10.50;;;3.08;;
31966;SDS011;18496;52.042;6.812;2023-05-23T13:50:28;27.10;;;3.53;;
31966;SDS011;18496;52.042;6.812;2023-05-23T13:52:32;15.68;;;3.33;;
31966;SDS011;18496;52.042;6.812;2023-05-23T13:54:35;17.58;;;2.75;;
31966;SDS011;18496;52.042;6.812;2023-05-23T13:56:39;11.40;;;2.80;;
31966;SDS011;18496;52.042;6.812;2023-05-23T13:58:43;6.68;;;2.63;;
31966;SDS011;18496;52.042;6.812;2023-05-23T14:00:48;11.77;;;2.90;;
31966;SDS011;18496;52.042;6.812;2023-05-23T14:02:52;12.70;;;3.20;;